createdAt,value
2023-04-27T00:01:28.966Z,1.00
2023-04-27T00:03:55.935Z,1.00
2023-04-27T00:06:24.339Z,0.90
2023-04-27T00:08:51.078Z,0.80
2023-04-27T00:11:17.863Z,0.70
2023-04-27T00:13:44.643Z,0.70
2023-04-27T00:16:11.530Z,0.60
2023-04-27T00:18:38.285Z,0.50
2023-04-27T00:21:05.213Z,0.40
2023-04-27T00:23:33.273Z,0.40
2023-04-27T00:25:59.999Z,0.30
2023-04-27T00:28:26.702Z,0.40
2023-04-27T00:30:53.545Z,0.30
2023-04-27T00:33:20.614Z,0.20
2023-04-27T00:35:47.420Z,0.20
2023-04-27T00:38:14.627Z,0.20
2023-04-27T00:40:42.729Z,0.10
2023-04-27T00:43:09.713Z,0.00
2023-04-27T00:45:41.047Z,0.00
2023-04-27T00:48:08.302Z,-0.10
2023-04-27T00:50:35.190Z,-0.10
2023-04-27T00:53:02.327Z,-0.10
2023-04-27T00:55:29.108Z,-0.20
2023-04-27T00:57:59.702Z,-0.20
2023-04-27T01:00:26.589Z,-0.20
2023-04-27T01:02:53.650Z,-0.20
2023-04-27T01:05:20.745Z,-0.30
2023-04-27T01:07:47.529Z,-0.30
2023-04-27T01:10:14.561Z,-0.30
2023-04-27T01:12:41.324Z,-0.30
2023-04-27T01:15:10.981Z,-0.30
2023-04-27T01:17:37.788Z,-0.40
2023-04-27T01:20:05.774Z,-0.40
2023-04-27T01:22:32.663Z,-0.40
2023-04-27T01:25:00.730Z,-0.30
2023-04-27T01:27:27.512Z,-0.30
2023-04-27T01:29:54.500Z,-0.40
2023-04-27T01:32:21.296Z,-0.40
2023-04-27T01:34:48.126Z,-0.50
2023-04-27T01:37:14.891Z,-0.50
2023-04-27T01:39:41.697Z,-0.60
2023-04-27T01:42:09.808Z,-0.60
2023-04-27T01:44:36.584Z,-0.60
2023-04-27T01:47:03.376Z,-0.50
2023-04-27T01:49:30.141Z,-0.50
2023-04-27T01:51:56.861Z,-0.50
2023-04-27T01:54:23.593Z,-0.60
2023-04-27T01:56:50.341Z,-0.70
2023-04-27T01:59:18.425Z,-0.70
2023-04-27T02:01:45.249Z,-0.70
2023-04-27T02:04:12.268Z,-0.70
2023-04-27T02:06:39.161Z,-0.60
2023-04-27T02:09:06.482Z,-0.50
2023-04-27T02:11:33.325Z,-0.30
2023-04-27T02:14:00.068Z,-0.30
2023-04-27T02:16:28.223Z,-0.20
2023-04-27T02:18:55.197Z,-0.20
2023-04-27T02:21:22.123Z,-0.20
2023-04-27T02:23:48.893Z,-0.20
2023-04-27T02:26:18.798Z,-0.20
2023-04-27T02:28:45.750Z,-0.30
2023-04-27T02:31:13.297Z,-0.40
2023-04-27T02:33:41.826Z,-0.40
2023-04-27T02:36:09.155Z,-0.50
2023-04-27T02:38:35.913Z,-0.50
2023-04-27T02:41:02.706Z,-0.60
2023-04-27T02:43:29.466Z,-0.60
2023-04-27T02:45:56.185Z,-0.50
2023-04-27T02:48:22.942Z,-0.50
2023-04-27T02:50:51.051Z,-0.50
2023-04-27T02:53:17.805Z,-0.60
2023-04-27T02:55:47.682Z,-0.50
2023-04-27T02:58:14.613Z,-0.50
2023-04-27T03:00:41.549Z,-0.40
2023-04-27T03:03:08.775Z,-0.30
2023-04-27T03:05:35.693Z,-0.30
2023-04-27T03:08:04.032Z,-0.20
2023-04-27T03:10:30.967Z,-0.20
2023-04-27T03:12:57.717Z,-0.10
2023-04-27T03:15:24.479Z,0.00
2023-04-27T03:17:52.603Z,0.00
2023-04-27T03:20:19.521Z,0.10
2023-04-27T03:22:46.290Z,0.00
2023-04-27T03:25:14.487Z,0.00
2023-04-27T03:27:43.870Z,-0.10
2023-04-27T03:30:11.862Z,-0.10
2023-04-27T03:32:47.145Z,-0.20
2023-04-27T03:35:14.706Z,-0.30
2023-04-27T03:37:41.469Z,-0.30
2023-04-27T03:40:09.428Z,-0.30
2023-04-27T03:42:37.546Z,-0.40
2023-04-27T03:45:05.132Z,-0.40
2023-04-27T03:47:31.865Z,-0.30
2023-04-27T03:49:58.715Z,-0.20
2023-04-27T03:52:25.456Z,-0.10
2023-04-27T03:54:52.162Z,-0.10
2023-04-27T03:57:18.830Z,-0.10
2023-04-27T03:59:46.875Z,-0.10
2023-04-27T04:02:13.735Z,-0.10
2023-04-27T04:04:40.744Z,-0.10
2023-04-27T04:07:07.761Z,-0.20
2023-04-27T04:09:34.513Z,-0.20
2023-04-27T04:12:01.232Z,-0.20
2023-04-27T04:14:29.064Z,-0.10
2023-04-27T04:16:57.200Z,-0.10
2023-04-27T04:19:23.967Z,-0.10
2023-04-27T04:21:50.690Z,-0.10
2023-04-27T04:24:17.427Z,-0.10
2023-04-27T04:26:44.227Z,-0.10
2023-04-27T04:29:11.269Z,0.00
2023-04-27T04:31:38.280Z,-0.10
2023-04-27T04:34:06.504Z,-0.10
2023-04-27T04:36:33.246Z,0.00
2023-04-27T04:38:59.933Z,0.00
2023-04-27T04:41:26.711Z,0.00
2023-04-27T04:43:53.432Z,0.00
2023-04-27T04:46:20.272Z,-0.10
2023-04-27T04:48:47.243Z,-0.10
2023-04-27T04:51:16.583Z,-0.10
2023-04-27T04:53:43.529Z,0.00
2023-04-27T04:56:11.124Z,0.10
2023-04-27T04:58:37.837Z,0.20
2023-04-27T05:01:07.958Z,0.30
2023-04-27T05:03:35.188Z,0.40
2023-04-27T05:06:02.101Z,0.50
2023-04-27T05:08:30.197Z,0.80
2023-04-27T05:10:56.949Z,0.90
2023-04-27T05:13:23.740Z,1.20
2023-04-27T05:15:51.293Z,1.40
2023-04-27T05:18:18.054Z,1.60
2023-04-27T05:20:45.050Z,1.80
2023-04-27T05:23:11.804Z,1.90
2023-04-27T05:25:39.989Z,2.00
2023-04-27T05:28:06.806Z,2.00
2023-04-27T05:30:33.550Z,2.00
2023-04-27T05:33:00.405Z,2.10
2023-04-27T05:35:27.204Z,2.20
2023-04-27T05:37:53.936Z,2.40
2023-04-27T05:40:20.754Z,2.60
2023-04-27T05:42:49.177Z,2.90
2023-04-27T05:45:16.072Z,3.80
2023-04-27T05:47:42.956Z,5.00
2023-04-27T05:50:10.465Z,6.20
2023-04-27T05:52:38.301Z,7.20
2023-04-27T05:55:06.583Z,7.60
2023-04-27T05:57:33.475Z,8.20
2023-04-27T06:00:01.762Z,8.90
2023-04-27T06:02:29.868Z,9.80
2023-04-27T06:04:56.733Z,10.30
2023-04-27T06:07:24.508Z,10.70
2023-04-27T06:09:51.226Z,11.30
2023-04-27T06:12:17.978Z,11.20
2023-04-27T06:14:44.740Z,10.50
2023-04-27T06:17:14.107Z,11.20
2023-04-27T06:19:40.886Z,11.70
2023-04-27T06:22:07.611Z,12.10
2023-04-27T06:24:35.661Z,12.40
2023-04-27T06:27:02.495Z,12.10
2023-04-27T06:29:29.244Z,12.30
2023-04-27T06:31:56.263Z,12.30
2023-04-27T06:34:24.409Z,12.40
2023-04-27T06:36:51.138Z,12.60
2023-04-27T06:39:17.900Z,13.20
2023-04-27T06:41:44.642Z,12.80
2023-04-27T06:44:11.352Z,13.20
2023-04-27T06:46:38.212Z,13.40
2023-04-27T06:49:04.985Z,13.70
2023-04-27T06:51:33.040Z,13.80
2023-04-27T06:53:59.852Z,13.60
2023-04-27T06:56:26.593Z,13.30
2023-04-27T06:58:53.297Z,13.50
2023-04-27T07:01:20.079Z,13.00
2023-04-27T07:03:47.065Z,13.60
2023-04-27T07:06:14.045Z,14.10
2023-04-27T07:08:42.811Z,13.80
2023-04-27T07:11:09.653Z,13.00
2023-04-27T07:13:36.411Z,13.10
2023-04-27T07:16:03.469Z,12.90
2023-04-27T07:18:30.308Z,12.80
2023-04-27T07:20:57.281Z,11.90
2023-04-27T07:23:24.267Z,11.70
2023-04-27T07:25:52.480Z,12.30
2023-04-27T07:28:19.424Z,12.60
2023-04-27T07:30:46.742Z,13.20
2023-04-27T07:33:14.482Z,13.00
2023-04-27T07:35:42.892Z,13.00
2023-04-27T07:38:09.893Z,13.20
2023-04-27T07:40:36.682Z,13.20
2023-04-27T07:43:04.754Z,13.20
2023-04-27T07:45:31.617Z,12.90
2023-04-27T07:47:59.110Z,13.10
2023-04-27T07:50:26.498Z,13.00
2023-04-27T07:52:53.443Z,13.10
2023-04-27T07:55:20.826Z,12.40
2023-04-27T07:57:49.939Z,12.40
2023-04-27T08:00:18.926Z,12.00
2023-04-27T08:02:46.026Z,12.40
2023-04-27T08:05:13.559Z,12.60
2023-04-27T08:07:44.564Z,12.30
2023-04-27T08:10:12.322Z,12.30
2023-04-27T08:12:39.145Z,12.50
2023-04-27T08:15:06.775Z,12.50
2023-04-27T08:17:35.012Z,12.40
2023-04-27T08:20:01.834Z,12.40
2023-04-27T08:22:28.570Z,12.40
2023-04-27T08:24:55.340Z,12.40
2023-04-27T08:27:22.119Z,12.20
2023-04-27T08:29:49.291Z,12.20
2023-04-27T08:32:16.519Z,11.90
2023-04-27T08:34:45.045Z,11.80
2023-04-27T08:37:12.209Z,11.80
2023-04-27T08:39:39.284Z,11.90
2023-04-27T08:42:11.499Z,12.00
2023-04-27T08:44:39.326Z,12.00
2023-04-27T08:47:06.128Z,12.20
2023-04-27T08:49:33.003Z,11.70
2023-04-27T08:52:02.049Z,11.60
2023-04-27T08:54:29.035Z,11.70
2023-04-27T08:56:56.069Z,11.80
2023-04-27T08:59:22.909Z,11.80
2023-04-27T09:01:49.998Z,11.50
2023-04-27T09:04:17.107Z,11.80
2023-04-27T09:06:43.945Z,11.90
2023-04-27T09:09:22.455Z,11.90
2023-04-27T09:11:49.203Z,11.80
2023-04-27T09:14:19.165Z,11.90
2023-04-27T09:16:46.160Z,11.40
2023-04-27T09:19:23.421Z,11.10
2023-04-27T09:21:50.142Z,11.00
2023-04-27T09:24:18.250Z,11.20
2023-04-27T09:26:50.058Z,11.40
2023-04-27T09:29:16.797Z,11.20
2023-04-27T09:31:43.550Z,11.20
2023-04-27T09:34:10.320Z,11.50
2023-04-27T09:36:37.749Z,11.50
2023-04-27T09:39:04.513Z,11.50
2023-04-27T09:41:33.279Z,11.60
2023-04-27T09:44:00.496Z,11.70
2023-04-27T09:46:29.067Z,11.90
2023-04-27T09:48:57.244Z,12.30
2023-04-27T09:51:23.979Z,12.70
2023-04-27T09:53:54.202Z,12.50
2023-04-27T09:56:31.339Z,12.40
2023-04-27T09:59:27.052Z,12.10
2023-04-27T10:01:57.431Z,12.40
2023-04-27T10:04:42.928Z,12.60
2023-04-27T10:07:11.310Z,12.80
2023-04-27T10:09:41.477Z,12.90
2023-04-27T10:12:21.194Z,13.00
2023-04-27T10:14:51.438Z,12.40
2023-04-27T10:17:18.622Z,12.10
2023-04-27T10:19:58.476Z,12.00
2023-04-27T10:22:37.583Z,11.80
2023-04-27T10:25:12.872Z,12.10
2023-04-27T10:27:40.225Z,12.40
2023-04-27T10:30:12.051Z,12.70
2023-04-27T10:32:49.691Z,12.60
2023-04-27T10:35:16.548Z,12.60
2023-04-27T10:37:43.841Z,12.00
2023-04-27T10:40:13.350Z,11.80
2023-04-27T10:42:40.843Z,11.80
2023-04-27T10:45:11.041Z,12.30
2023-04-27T10:47:39.296Z,12.00
2023-04-27T10:50:07.735Z,12.00
2023-04-27T10:52:34.474Z,12.20
2023-04-27T10:55:12.811Z,12.20
2023-04-27T10:57:46.882Z,12.20
2023-04-27T11:00:16.868Z,12.30
2023-04-27T11:02:43.721Z,12.10
2023-04-27T11:05:17.729Z,12.20
2023-04-27T11:07:44.745Z,12.10
2023-04-27T11:10:15.642Z,11.90
2023-04-27T11:12:42.472Z,11.80
2023-04-27T11:15:10.043Z,11.90
2023-04-27T11:17:38.229Z,11.70
2023-04-27T11:20:06.003Z,11.60
2023-04-27T11:22:33.029Z,11.80
2023-04-27T11:24:59.928Z,12.00
2023-04-27T11:27:36.830Z,12.30
2023-04-27T11:30:04.183Z,12.50
2023-04-27T11:32:31.026Z,12.40
2023-04-27T11:34:59.743Z,12.40
2023-04-27T11:37:27.400Z,12.50
2023-04-27T11:39:55.083Z,12.70
2023-04-27T11:42:23.417Z,12.90
2023-04-27T11:44:52.529Z,12.60
2023-04-27T11:47:19.277Z,12.50
2023-04-27T11:49:47.993Z,12.60
2023-04-27T11:52:16.153Z,12.50
2023-04-27T11:54:48.200Z,12.70
2023-04-27T11:57:15.104Z,12.80
2023-04-27T11:59:41.841Z,13.10
2023-04-27T12:02:09.015Z,13.00
2023-04-27T12:04:38.197Z,13.20
2023-04-27T12:07:05.120Z,13.30
2023-04-27T12:09:33.547Z,13.30
2023-04-27T12:12:00.324Z,12.90
2023-04-27T12:14:27.065Z,12.20
2023-04-27T12:16:53.902Z,11.80
2023-04-27T12:19:20.818Z,11.70
2023-04-27T12:21:47.733Z,11.80
2023-04-27T12:24:14.668Z,12.30
2023-04-27T12:26:43.025Z,12.30
2023-04-27T12:29:09.823Z,12.30
2023-04-27T12:31:38.198Z,12.20
2023-04-27T12:34:05.023Z,12.50
2023-04-27T12:36:31.920Z,12.40
2023-04-27T12:39:00.120Z,12.20
2023-04-27T12:41:27.106Z,12.10
2023-04-27T12:43:55.181Z,12.00
2023-04-27T12:46:21.989Z,12.20
2023-04-27T12:48:48.839Z,12.40
2023-04-27T12:51:15.647Z,12.50
2023-04-27T12:53:42.388Z,12.40
2023-04-27T12:56:09.187Z,12.50
2023-04-27T12:58:35.996Z,12.60
2023-04-27T13:01:04.660Z,12.70
2023-04-27T13:03:31.570Z,12.70
2023-04-27T13:05:58.477Z,12.40
2023-04-27T13:08:25.238Z,12.50
2023-04-27T13:10:52.926Z,12.70
2023-04-27T13:13:19.784Z,13.00
2023-04-27T13:15:46.752Z,13.20
2023-04-27T13:18:15.108Z,13.30
2023-04-27T13:20:41.911Z,13.40
2023-04-27T13:23:08.691Z,13.20
2023-04-27T13:25:35.431Z,13.20
2023-04-27T13:28:02.208Z,13.30
2023-04-27T13:30:30.033Z,13.50
2023-04-27T13:33:01.920Z,13.50
2023-04-27T13:35:38.793Z,13.20
2023-04-27T13:38:05.574Z,12.70
2023-04-27T13:40:32.554Z,12.50
2023-04-27T13:42:59.308Z,12.60
2023-04-27T13:45:27.474Z,13.00
2023-04-27T13:47:54.220Z,13.40
2023-04-27T13:50:22.007Z,13.50
2023-04-27T13:52:50.088Z,13.40
2023-04-27T13:55:19.124Z,13.30
2023-04-27T13:57:45.996Z,13.30
2023-04-27T14:00:13.840Z,13.30
2023-04-27T14:02:41.100Z,13.50
2023-04-27T14:05:08.511Z,13.80
2023-04-27T14:07:35.306Z,13.50
2023-04-27T14:10:03.584Z,13.40
2023-04-27T14:12:30.867Z,13.50
2023-04-27T14:14:58.512Z,13.60
2023-04-27T14:17:25.346Z,13.70
2023-04-27T14:19:52.150Z,13.70
2023-04-27T14:22:18.975Z,13.80
2023-04-27T14:24:45.715Z,13.70
2023-04-27T14:27:14.517Z,13.70
2023-04-27T14:29:41.211Z,13.90
2023-04-27T14:32:10.489Z,13.80
2023-04-27T14:34:37.311Z,13.60
2023-04-27T14:37:04.011Z,13.50
2023-04-27T14:39:30.760Z,13.50
2023-04-27T14:41:57.484Z,13.50
2023-04-27T14:44:25.678Z,13.40
2023-04-27T14:46:52.531Z,13.40
2023-04-27T14:49:19.513Z,13.30
2023-04-27T14:51:46.273Z,13.40
2023-04-27T14:54:13.003Z,13.10
2023-04-27T14:56:39.752Z,13.00
2023-04-27T14:59:06.506Z,12.80
2023-04-27T15:01:34.715Z,12.70
2023-04-27T15:04:01.821Z,12.90
2023-04-27T15:06:28.797Z,13.10
2023-04-27T15:08:55.999Z,13.20
2023-04-27T15:11:22.955Z,13.30
2023-04-27T15:13:49.710Z,13.10
2023-04-27T15:16:16.661Z,13.20
2023-04-27T15:18:44.760Z,13.20
2023-04-27T15:21:11.477Z,13.40
2023-04-27T15:23:38.264Z,13.20
2023-04-27T15:26:05.249Z,13.10
2023-04-27T15:28:31.995Z,12.90
2023-04-27T15:30:58.849Z,12.90
2023-04-27T15:33:26.024Z,12.90
2023-04-27T15:35:54.335Z,12.90
2023-04-27T15:38:21.071Z,13.10
2023-04-27T15:40:47.796Z,13.30
2023-04-27T15:43:14.544Z,13.40
2023-04-27T15:45:41.243Z,13.20
2023-04-27T15:48:08.076Z,13.00
2023-04-27T15:50:35.046Z,12.70
2023-04-27T15:53:03.103Z,12.70
2023-04-27T15:55:30.949Z,12.80
2023-04-27T15:57:57.697Z,12.80
2023-04-27T16:00:24.474Z,12.70
2023-04-27T16:02:56.998Z,12.80
2023-04-27T16:05:24.045Z,12.80
2023-04-27T16:07:50.977Z,12.70
2023-04-27T16:10:19.160Z,12.60
2023-04-27T16:12:45.885Z,12.40
2023-04-27T16:15:12.626Z,12.40
2023-04-27T16:17:39.478Z,12.40
2023-04-27T16:20:07.411Z,12.30
2023-04-27T16:22:34.309Z,12.20
2023-04-27T16:25:01.147Z,12.10
2023-04-27T16:27:29.305Z,12.20
2023-04-27T16:29:56.363Z,12.20
2023-04-27T16:32:23.417Z,12.00
2023-04-27T16:34:50.283Z,11.80
2023-04-27T16:37:17.029Z,11.90
2023-04-27T16:39:43.772Z,11.80
2023-04-27T16:42:10.532Z,11.80
2023-04-27T16:44:38.890Z,11.80
2023-04-27T16:47:05.640Z,11.70
2023-04-27T16:49:32.390Z,11.70
2023-04-27T16:51:59.931Z,11.50
2023-04-27T16:54:26.919Z,11.40
2023-04-27T16:56:55.212Z,11.40
2023-04-27T16:59:22.258Z,11.30
2023-04-27T17:01:50.538Z,11.10
2023-04-27T17:04:17.439Z,10.90
2023-04-27T17:06:44.241Z,10.80
2023-04-27T17:09:10.997Z,10.70
2023-04-27T17:11:37.778Z,10.70
2023-04-27T17:14:04.524Z,10.70
2023-04-27T17:16:31.402Z,10.70
2023-04-27T17:18:59.494Z,10.60
2023-04-27T17:21:27.308Z,10.60
2023-04-27T17:23:54.182Z,10.50
2023-04-27T17:26:20.910Z,10.50
2023-04-27T17:28:47.959Z,10.40
2023-04-27T17:31:14.783Z,10.40
2023-04-27T17:33:42.584Z,10.30
2023-04-27T17:36:12.185Z,10.30
2023-04-27T17:38:38.899Z,10.20
2023-04-27T17:41:05.753Z,10.20
2023-04-27T17:43:32.477Z,10.20
2023-04-27T17:45:59.244Z,10.10
2023-04-27T17:48:26.025Z,10.10
2023-04-27T17:50:53.555Z,10.10
2023-04-27T17:53:21.736Z,9.90
2023-04-27T17:55:48.505Z,9.90
2023-04-27T17:58:15.290Z,9.90
2023-04-27T18:00:42.432Z,9.90
2023-04-27T18:03:09.530Z,9.80
2023-04-27T18:05:36.478Z,9.80
2023-04-27T18:08:03.263Z,9.70
2023-04-27T18:10:31.432Z,9.60
2023-04-27T18:12:58.191Z,9.50
2023-04-27T18:15:24.995Z,9.40
2023-04-27T18:17:51.814Z,9.30
2023-04-27T18:20:18.670Z,9.30
2023-04-27T18:22:45.406Z,9.20
2023-04-27T18:25:12.194Z,9.20
2023-04-27T18:27:41.667Z,9.20
2023-04-27T18:30:08.813Z,9.10
2023-04-27T18:32:35.848Z,9.10
2023-04-27T18:35:03.023Z,9.10
2023-04-27T18:37:30.064Z,9.00
2023-04-27T18:39:56.796Z,9.00
2023-04-27T18:42:23.797Z,9.00
2023-04-27T18:44:52.987Z,9.00
2023-04-27T18:47:19.713Z,8.90
2023-04-27T18:49:46.447Z,8.90
2023-04-27T18:52:13.323Z,8.90
2023-04-27T18:54:40.052Z,8.90
2023-04-27T18:57:07.035Z,8.80
2023-04-27T18:59:33.935Z,8.80
2023-04-27T19:02:02.042Z,8.80
2023-04-27T19:04:28.922Z,8.70
2023-04-27T19:06:55.721Z,8.70
2023-04-27T19:09:22.455Z,8.70
2023-04-27T19:11:56.150Z,8.60
2023-04-27T19:14:26.704Z,8.60
2023-04-27T19:16:53.490Z,8.70
2023-04-27T19:19:21.646Z,8.60
2023-04-27T19:21:48.727Z,8.60
2023-04-27T19:24:15.521Z,8.60
2023-04-27T19:26:42.268Z,8.50
2023-04-27T19:29:09.148Z,8.50
2023-04-27T19:31:35.998Z,8.50
2023-04-27T19:34:18.249Z,8.50
2023-04-27T19:36:46.609Z,8.40
2023-04-27T19:39:13.603Z,8.40
2023-04-27T19:41:40.584Z,8.40
2023-04-27T19:44:07.327Z,8.40
2023-04-27T19:46:34.595Z,8.40
2023-04-27T19:49:01.392Z,8.30
2023-04-27T19:51:28.099Z,8.30
2023-04-27T19:53:56.198Z,8.30
2023-04-27T19:56:23.086Z,8.30
2023-04-27T19:58:50.020Z,8.30
2023-04-27T20:01:16.826Z,8.30
2023-04-27T20:03:43.835Z,8.20
2023-04-27T20:06:11.080Z,8.20
2023-04-27T20:08:38.098Z,8.20
2023-04-27T20:11:06.372Z,8.20
2023-04-27T20:13:33.141Z,8.20
2023-04-27T20:15:59.931Z,8.20
2023-04-27T20:18:26.653Z,8.20
2023-04-27T20:20:53.412Z,8.10
2023-04-27T20:23:20.154Z,8.10
2023-04-27T20:25:46.850Z,8.10
2023-04-27T20:28:14.932Z,8.10
2023-04-27T20:30:41.674Z,8.10
2023-04-27T20:33:08.495Z,8.10
2023-04-27T20:35:35.241Z,8.10
2023-04-27T20:38:01.988Z,8.10
2023-04-27T20:40:34.402Z,8.10
2023-04-27T20:43:01.402Z,8.00
2023-04-27T20:45:29.616Z,8.00
2023-04-27T20:47:56.519Z,8.00
2023-04-27T20:50:23.277Z,8.00
2023-04-27T20:52:49.994Z,7.90
2023-04-27T20:55:17.053Z,7.90
2023-04-27T20:57:43.765Z,7.90
2023-04-27T21:00:11.477Z,7.90
2023-04-27T21:02:39.665Z,7.80
2023-04-27T21:05:07.135Z,7.80
2023-04-27T21:07:33.932Z,7.80
2023-04-27T21:10:00.694Z,7.80
2023-04-27T21:12:27.388Z,7.80
2023-04-27T21:14:54.352Z,7.80
2023-04-27T21:17:21.094Z,7.80
2023-04-27T21:19:49.137Z,7.80
2023-04-27T21:22:15.902Z,7.80
2023-04-27T21:24:42.628Z,7.70
2023-04-27T21:27:09.427Z,7.70
2023-04-27T21:29:36.173Z,7.70
2023-04-27T21:32:03.110Z,7.70
2023-04-27T21:34:29.855Z,7.70
2023-04-27T21:36:57.945Z,7.70
2023-04-27T21:39:24.806Z,7.70
2023-04-27T21:41:51.589Z,7.70
2023-04-27T21:44:18.353Z,7.70
2023-04-27T21:46:45.121Z,7.70
2023-04-27T21:49:11.941Z,7.70
2023-04-27T21:51:38.684Z,7.70
2023-04-27T21:54:06.810Z,7.60
2023-04-27T21:56:33.573Z,7.60
2023-04-27T21:59:00.317Z,7.60
2023-04-27T22:01:27.236Z,7.60
2023-04-27T22:03:54.291Z,7.60
2023-04-27T22:06:21.224Z,7.50
2023-04-27T22:08:48.022Z,7.60
2023-04-27T22:11:16.184Z,7.50
2023-04-27T22:13:42.920Z,7.60
2023-04-27T22:16:11.053Z,7.60
2023-04-27T22:18:39.090Z,7.60
2023-04-27T22:21:05.937Z,7.50
2023-04-27T22:23:32.700Z,7.60
2023-04-27T22:25:59.452Z,7.60
2023-04-27T22:28:27.606Z,7.60
2023-04-27T22:30:55.346Z,7.50
2023-04-27T22:33:22.083Z,7.60
2023-04-27T22:35:48.861Z,7.50
2023-04-27T22:38:15.813Z,7.50
2023-04-27T22:40:42.533Z,7.50
2023-04-27T22:43:09.561Z,7.50
2023-04-27T22:45:39.042Z,7.50
2023-04-27T22:48:06.251Z,7.50
2023-04-27T22:50:33.019Z,7.40
2023-04-27T22:52:59.846Z,7.40
2023-04-27T22:55:26.790Z,7.40
2023-04-27T22:57:53.544Z,7.40
2023-04-27T23:00:20.777Z,7.40
2023-04-27T23:02:48.996Z,7.40
2023-04-27T23:05:16.052Z,7.30
2023-04-27T23:07:43.101Z,7.30
2023-04-27T23:10:10.474Z,7.30
2023-04-27T23:12:37.249Z,7.20
2023-04-27T23:15:04.967Z,7.20
2023-04-27T23:17:32.007Z,7.10
2023-04-27T23:20:01.492Z,7.10
2023-04-27T23:22:28.456Z,7.10
2023-04-27T23:24:55.236Z,7.10
2023-04-27T23:27:21.983Z,7.10
2023-04-27T23:29:48.717Z,7.10
2023-04-27T23:32:15.465Z,7.10
2023-04-27T23:34:44.438Z,7.10
2023-04-27T23:37:12.374Z,7.00
2023-04-27T23:39:39.324Z,7.10
2023-04-27T23:42:06.351Z,7.00
2023-04-27T23:44:33.363Z,7.00
2023-04-27T23:47:00.278Z,7.00
2023-04-27T23:49:27.261Z,7.00
2023-04-27T23:51:56.377Z,7.00
2023-04-27T23:54:24.657Z,7.00
2023-04-27T23:56:51.761Z,7.00
2023-04-27T23:59:18.832Z,6.90
